sensor_id;sensor_type;location;lat;lon;timestamp;P1;durP1;ratioP1;P2;durP2;ratioP2
47153;SDS011;32907;41.412;2.164;2023-02-12T00:01:25;11.10;;;9.60;;
47153;SDS011;32907;41.412;2.164;2023-02-12T00:03:55;12.95;;;9.20;;
47153;SDS011;32907;41.412;2.164;2023-02-12T00:06:23;11.77;;;10.15;;
47153;SDS011;32907;41.412;2.164;2023-02-12T00:08:52;9.65;;;8.50;;
47153;SDS011;32907;41.412;2.164;2023-02-12T00:11:23;11.10;;;9.00;;
47153;SDS011;32907;41.412;2.164;2023-02-12T00:13:52;13.18;;;10.30;;
47153;SDS011;32907;41.412;2.164;2023-02-12T00:16:22;10.77;;;8.55;;
47153;SDS011;32907;41.412;2.164;2023-02-12T00:18:52;11.30;;;9.57;;
47153;SDS011;32907;41.412;2.164;2023-02-12T00:21:21;11.13;;;9.43;;
47153;SDS011;32907;41.412;2.164;2023-02-12T00:23:50;12.20;;;8.93;;
47153;SDS011;32907;41.412;2.164;2023-02-12T00:26:19;11.80;;;9.57;;
47153;SDS011;32907;41.412;2.164;2023-02-12T00:28:50;10.80;;;9.20;;
47153;SDS011;32907;41.412;2.164;2023-02-12T00:31:20;10.02;;;8.70;;
47153;SDS011;32907;41.412;2.164;2023-02-12T00:33:50;10.02;;;8.23;;
47153;SDS011;32907;41.412;2.164;2023-02-12T00:36:19;10.35;;;8.75;;
47153;SDS011;32907;41.412;2.164;2023-02-12T00:38:50;11.93;;;9.27;;
47153;SDS011;32907;41.412;2.164;2023-02-12T00:41:21;11.40;;;8.35;;
47153;SDS011;32907;41.412;2.164;2023-02-12T00:43:50;10.55;;;8.15;;
47153;SDS011;32907;41.412;2.164;2023-02-12T00:46:18;11.68;;;8.32;;
47153;SDS011;32907;41.412;2.164;2023-02-12T00:48:47;10.88;;;8.60;;
47153;SDS011;32907;41.412;2.164;2023-02-12T00:51:18;11.60;;;8.18;;
47153;SDS011;32907;41.412;2.164;2023-02-12T00:53:46;11.90;;;8.55;;
47153;SDS011;32907;41.412;2.164;2023-02-12T00:56:14;11.60;;;7.57;;
47153;SDS011;32907;41.412;2.164;2023-02-12T00:58:42;10.32;;;8.88;;
47153;SDS011;32907;41.412;2.164;2023-02-12T01:01:10;10.88;;;8.98;;
47153;SDS011;32907;41.412;2.164;2023-02-12T01:03:38;11.40;;;9.32;;
47153;SDS011;32907;41.412;2.164;2023-02-12T01:06:06;10.68;;;9.48;;
47153;SDS011;32907;41.412;2.164;2023-02-12T01:08:35;12.27;;;8.95;;
47153;SDS011;32907;41.412;2.164;2023-02-12T01:11:03;13.93;;;8.95;;
47153;SDS011;32907;41.412;2.164;2023-02-12T01:13:32;12.30;;;8.75;;
47153;SDS011;32907;41.412;2.164;2023-02-12T01:16:02;11.55;;;8.40;;
47153;SDS011;32907;41.412;2.164;2023-02-12T01:18:35;9.07;;;7.93;;
47153;SDS011;32907;41.412;2.164;2023-02-12T01:21:17;11.90;;;8.45;;
47153;SDS011;32907;41.412;2.164;2023-02-12T01:23:47;10.95;;;7.80;;
47153;SDS011;32907;41.412;2.164;2023-02-12T01:26:16;10.25;;;7.70;;
47153;SDS011;32907;41.412;2.164;2023-02-12T01:28:50;10.52;;;7.72;;
47153;SDS011;32907;41.412;2.164;2023-02-12T01:31:21;10.73;;;7.55;;
47153;SDS011;32907;41.412;2.164;2023-02-12T01:33:52;10.15;;;6.75;;
47153;SDS011;32907;41.412;2.164;2023-02-12T01:36:21;9.75;;;7.60;;
47153;SDS011;32907;41.412;2.164;2023-02-12T01:38:49;10.98;;;6.88;;
47153;SDS011;32907;41.412;2.164;2023-02-12T01:41:40;9.95;;;7.47;;
47153;SDS011;32907;41.412;2.164;2023-02-12T01:44:13;9.65;;;7.18;;
47153;SDS011;32907;41.412;2.164;2023-02-12T01:46:54;9.52;;;7.13;;
47153;SDS011;32907;41.412;2.164;2023-02-12T01:49:32;10.15;;;6.93;;
47153;SDS011;32907;41.412;2.164;2023-02-12T01:52:09;8.55;;;7.38;;
47153;SDS011;32907;41.412;2.164;2023-02-12T01:54:42;9.20;;;7.35;;
47153;SDS011;32907;41.412;2.164;2023-02-12T01:57:11;10.32;;;7.10;;
47153;SDS011;32907;41.412;2.164;2023-02-12T01:59:41;8.95;;;7.25;;
47153;SDS011;32907;41.412;2.164;2023-02-12T02:02:11;10.07;;;8.07;;
47153;SDS011;32907;41.412;2.164;2023-02-12T02:04:45;8.95;;;7.05;;
47153;SDS011;32907;41.412;2.164;2023-02-12T02:07:16;8.87;;;6.73;;
47153;SDS011;32907;41.412;2.164;2023-02-12T02:09:44;10.25;;;7.20;;
47153;SDS011;32907;41.412;2.164;2023-02-12T02:12:12;10.50;;;7.43;;
47153;SDS011;32907;41.412;2.164;2023-02-12T02:14:58;9.88;;;7.78;;
47153;SDS011;32907;41.412;2.164;2023-02-12T02:34:13;12.07;;;8.93;;
47153;SDS011;32907;41.412;2.164;2023-02-12T02:36:55;13.05;;;10.27;;
47153;SDS011;32907;41.412;2.164;2023-02-12T02:39:29;14.23;;;10.68;;
47153;SDS011;32907;41.412;2.164;2023-02-12T02:44:58;14.52;;;10.55;;
47153;SDS011;32907;41.412;2.164;2023-02-12T02:47:37;14.43;;;10.77;;
47153;SDS011;32907;41.412;2.164;2023-02-12T02:52:40;12.35;;;10.30;;
47153;SDS011;32907;41.412;2.164;2023-02-12T02:55:17;12.15;;;10.05;;
47153;SDS011;32907;41.412;2.164;2023-02-12T03:03:15;12.95;;;9.30;;
47153;SDS011;32907;41.412;2.164;2023-02-12T03:05:46;13.93;;;9.83;;
47153;SDS011;32907;41.412;2.164;2023-02-12T03:08:18;16.50;;;10.68;;
47153;SDS011;32907;41.412;2.164;2023-02-12T03:10:54;14.27;;;10.43;;
47153;SDS011;32907;41.412;2.164;2023-02-12T03:16:26;13.80;;;9.73;;
47153;SDS011;32907;41.412;2.164;2023-02-12T03:19:04;14.38;;;9.48;;
47153;SDS011;32907;41.412;2.164;2023-02-12T03:21:49;11.52;;;9.13;;
47153;SDS011;32907;41.412;2.164;2023-02-12T03:29:53;11.98;;;8.50;;
47153;SDS011;32907;41.412;2.164;2023-02-12T03:40:40;9.65;;;7.63;;
47153;SDS011;32907;41.412;2.164;2023-02-12T03:45:58;8.68;;;7.03;;
47153;SDS011;32907;41.412;2.164;2023-02-12T03:51:34;11.57;;;8.02;;
47153;SDS011;32907;41.412;2.164;2023-02-12T03:54:05;11.90;;;9.27;;
47153;SDS011;32907;41.412;2.164;2023-02-12T03:59:12;10.95;;;8.27;;
47153;SDS011;32907;41.412;2.164;2023-02-12T04:01:40;11.60;;;8.85;;
47153;SDS011;32907;41.412;2.164;2023-02-12T04:04:08;11.55;;;8.07;;
47153;SDS011;32907;41.412;2.164;2023-02-12T04:06:39;10.10;;;7.43;;
47153;SDS011;32907;41.412;2.164;2023-02-12T04:09:08;9.77;;;7.25;;
47153;SDS011;32907;41.412;2.164;2023-02-12T04:14:26;10.48;;;7.78;;
47153;SDS011;32907;41.412;2.164;2023-02-12T04:17:32;10.25;;;7.43;;
47153;SDS011;32907;41.412;2.164;2023-02-12T04:25:57;9.82;;;7.78;;
47153;SDS011;32907;41.412;2.164;2023-02-12T04:28:50;8.73;;;6.82;;
47153;SDS011;32907;41.412;2.164;2023-02-12T04:39:40;7.32;;;5.75;;
47153;SDS011;32907;41.412;2.164;2023-02-12T04:42:10;8.23;;;5.75;;
47153;SDS011;32907;41.412;2.164;2023-02-12T04:44:39;8.90;;;6.85;;
47153;SDS011;32907;41.412;2.164;2023-02-12T04:47:10;7.82;;;6.07;;
47153;SDS011;32907;41.412;2.164;2023-02-12T04:49:42;8.27;;;6.28;;
47153;SDS011;32907;41.412;2.164;2023-02-12T04:52:10;8.20;;;6.40;;
47153;SDS011;32907;41.412;2.164;2023-02-12T04:54:39;7.68;;;5.75;;
47153;SDS011;32907;41.412;2.164;2023-02-12T04:57:07;11.18;;;6.90;;
47153;SDS011;32907;41.412;2.164;2023-02-12T04:59:35;9.65;;;7.18;;
47153;SDS011;32907;41.412;2.164;2023-02-12T05:02:03;8.50;;;6.65;;
47153;SDS011;32907;41.412;2.164;2023-02-12T05:04:32;10.38;;;7.07;;
47153;SDS011;32907;41.412;2.164;2023-02-12T05:06:59;8.05;;;6.38;;
47153;SDS011;32907;41.412;2.164;2023-02-12T05:09:27;9.63;;;7.40;;
47153;SDS011;32907;41.412;2.164;2023-02-12T05:11:55;11.73;;;7.30;;
47153;SDS011;32907;41.412;2.164;2023-02-12T05:14:24;8.38;;;6.15;;
47153;SDS011;32907;41.412;2.164;2023-02-12T05:16:52;7.78;;;6.43;;
47153;SDS011;32907;41.412;2.164;2023-02-12T05:19:20;8.95;;;6.03;;
47153;SDS011;32907;41.412;2.164;2023-02-12T05:21:50;8.93;;;6.45;;
47153;SDS011;32907;41.412;2.164;2023-02-12T05:24:19;10.02;;;6.57;;
47153;SDS011;32907;41.412;2.164;2023-02-12T05:26:47;8.90;;;6.70;;
47153;SDS011;32907;41.412;2.164;2023-02-12T05:29:17;10.15;;;6.88;;
47153;SDS011;32907;41.412;2.164;2023-02-12T05:31:45;8.77;;;6.90;;
47153;SDS011;32907;41.412;2.164;2023-02-12T05:34:14;8.82;;;6.80;;
47153;SDS011;32907;41.412;2.164;2023-02-12T05:36:42;8.55;;;7.30;;
47153;SDS011;32907;41.412;2.164;2023-02-12T05:39:10;8.95;;;6.75;;
47153;SDS011;32907;41.412;2.164;2023-02-12T05:41:38;9.70;;;7.40;;
47153;SDS011;32907;41.412;2.164;2023-02-12T05:44:06;7.15;;;6.40;;
47153;SDS011;32907;41.412;2.164;2023-02-12T05:46:34;8.70;;;7.07;;
47153;SDS011;32907;41.412;2.164;2023-02-12T05:49:02;8.23;;;7.10;;
47153;SDS011;32907;41.412;2.164;2023-02-12T05:51:31;11.77;;;8.27;;
47153;SDS011;32907;41.412;2.164;2023-02-12T05:54:00;10.93;;;7.25;;
47153;SDS011;32907;41.412;2.164;2023-02-12T05:56:31;9.50;;;7.55;;
47153;SDS011;32907;41.412;2.164;2023-02-12T05:59:06;13.02;;;8.02;;
47153;SDS011;32907;41.412;2.164;2023-02-12T06:01:40;9.35;;;7.43;;
47153;SDS011;32907;41.412;2.164;2023-02-12T06:04:28;9.02;;;7.50;;
47153;SDS011;32907;41.412;2.164;2023-02-12T06:06:56;8.13;;;7.10;;
47153;SDS011;32907;41.412;2.164;2023-02-12T06:09:26;8.73;;;7.43;;
47153;SDS011;32907;41.412;2.164;2023-02-12T06:11:55;8.48;;;7.15;;
47153;SDS011;32907;41.412;2.164;2023-02-12T06:14:22;8.48;;;7.20;;
47153;SDS011;32907;41.412;2.164;2023-02-12T06:16:50;10.43;;;8.25;;
47153;SDS011;32907;41.412;2.164;2023-02-12T06:19:19;10.43;;;8.13;;
47153;SDS011;32907;41.412;2.164;2023-02-12T06:21:47;13.23;;;9.02;;
47153;SDS011;32907;41.412;2.164;2023-02-12T06:24:16;12.30;;;8.65;;
47153;SDS011;32907;41.412;2.164;2023-02-12T06:26:44;9.60;;;7.95;;
47153;SDS011;32907;41.412;2.164;2023-02-12T06:29:15;10.80;;;7.70;;
47153;SDS011;32907;41.412;2.164;2023-02-12T06:31:44;7.95;;;6.50;;
47153;SDS011;32907;41.412;2.164;2023-02-12T06:34:14;9.27;;;6.85;;
47153;SDS011;32907;41.412;2.164;2023-02-12T06:36:47;8.43;;;6.53;;
47153;SDS011;32907;41.412;2.164;2023-02-12T06:39:15;7.43;;;6.13;;
47153;SDS011;32907;41.412;2.164;2023-02-12T06:41:43;7.50;;;5.80;;
47153;SDS011;32907;41.412;2.164;2023-02-12T06:44:12;9.63;;;5.97;;
47153;SDS011;32907;41.412;2.164;2023-02-12T06:46:40;17.30;;;7.80;;
47153;SDS011;32907;41.412;2.164;2023-02-12T06:49:09;12.48;;;7.93;;
47153;SDS011;32907;41.412;2.164;2023-02-12T06:51:39;10.93;;;7.25;;
47153;SDS011;32907;41.412;2.164;2023-02-12T06:54:11;9.73;;;7.90;;
47153;SDS011;32907;41.412;2.164;2023-02-12T06:56:40;10.57;;;8.15;;
47153;SDS011;32907;41.412;2.164;2023-02-12T06:59:12;11.15;;;8.50;;
47153;SDS011;32907;41.412;2.164;2023-02-12T07:01:42;12.23;;;9.25;;
47153;SDS011;32907;41.412;2.164;2023-02-12T07:04:10;10.85;;;8.48;;
47153;SDS011;32907;41.412;2.164;2023-02-12T07:06:38;10.68;;;9.18;;
47153;SDS011;32907;41.412;2.164;2023-02-12T07:09:07;12.05;;;9.75;;
47153;SDS011;32907;41.412;2.164;2023-02-12T07:11:36;12.30;;;9.55;;
47153;SDS011;32907;41.412;2.164;2023-02-12T07:14:05;11.45;;;9.20;;
47153;SDS011;32907;41.412;2.164;2023-02-12T07:16:39;10.63;;;8.73;;
47153;SDS011;32907;41.412;2.164;2023-02-12T07:19:09;11.13;;;8.13;;
47153;SDS011;32907;41.412;2.164;2023-02-12T07:21:40;9.73;;;7.45;;
47153;SDS011;32907;41.412;2.164;2023-02-12T07:24:11;13.13;;;8.65;;
47153;SDS011;32907;41.412;2.164;2023-02-12T07:26:40;10.30;;;8.43;;
47153;SDS011;32907;41.412;2.164;2023-02-12T07:29:08;12.13;;;8.98;;
47153;SDS011;32907;41.412;2.164;2023-02-12T07:31:37;12.90;;;9.60;;
47153;SDS011;32907;41.412;2.164;2023-02-12T07:34:06;11.93;;;9.75;;
47153;SDS011;32907;41.412;2.164;2023-02-12T07:36:34;11.48;;;9.32;;
47153;SDS011;32907;41.412;2.164;2023-02-12T07:39:02;15.73;;;10.60;;
47153;SDS011;32907;41.412;2.164;2023-02-12T07:41:32;14.35;;;10.25;;
47153;SDS011;32907;41.412;2.164;2023-02-12T07:44:02;12.52;;;10.00;;
47153;SDS011;32907;41.412;2.164;2023-02-12T07:46:38;12.50;;;10.15;;
47153;SDS011;32907;41.412;2.164;2023-02-12T07:49:10;17.17;;;10.88;;
47153;SDS011;32907;41.412;2.164;2023-02-12T07:51:40;13.23;;;10.13;;
47153;SDS011;32907;41.412;2.164;2023-02-12T07:54:09;16.33;;;11.00;;
47153;SDS011;32907;41.412;2.164;2023-02-12T07:56:39;13.68;;;10.45;;
47153;SDS011;32907;41.412;2.164;2023-02-12T07:59:11;14.63;;;11.50;;
47153;SDS011;32907;41.412;2.164;2023-02-12T08:01:41;14.50;;;12.13;;
47153;SDS011;32907;41.412;2.164;2023-02-12T08:04:13;13.82;;;12.02;;
47153;SDS011;32907;41.412;2.164;2023-02-12T08:06:43;13.70;;;11.75;;
47153;SDS011;32907;41.412;2.164;2023-02-12T08:09:34;13.10;;;11.70;;
47153;SDS011;32907;41.412;2.164;2023-02-12T08:12:01;13.70;;;11.02;;
47153;SDS011;32907;41.412;2.164;2023-02-12T08:14:29;18.45;;;13.73;;
47153;SDS011;32907;41.412;2.164;2023-02-12T08:16:58;22.27;;;15.48;;
47153;SDS011;32907;41.412;2.164;2023-02-12T08:19:26;15.40;;;13.10;;
47153;SDS011;32907;41.412;2.164;2023-02-12T08:21:55;14.63;;;12.95;;
47153;SDS011;32907;41.412;2.164;2023-02-12T08:24:24;15.07;;;13.45;;
47153;SDS011;32907;41.412;2.164;2023-02-12T08:26:53;19.70;;;13.27;;
47153;SDS011;32907;41.412;2.164;2023-02-12T08:29:23;14.63;;;11.93;;
47153;SDS011;32907;41.412;2.164;2023-02-12T08:31:56;13.63;;;12.13;;
47153;SDS011;32907;41.412;2.164;2023-02-12T08:34:29;14.20;;;12.02;;
47153;SDS011;32907;41.412;2.164;2023-02-12T08:36:59;13.80;;;12.23;;
47153;SDS011;32907;41.412;2.164;2023-02-12T08:39:27;17.15;;;12.27;;
47153;SDS011;32907;41.412;2.164;2023-02-12T08:41:56;14.48;;;12.40;;
47153;SDS011;32907;41.412;2.164;2023-02-12T08:44:25;16.67;;;13.05;;
47153;SDS011;32907;41.412;2.164;2023-02-12T08:46:54;14.90;;;11.88;;
47153;SDS011;32907;41.412;2.164;2023-02-12T08:49:26;15.32;;;11.95;;
47153;SDS011;32907;41.412;2.164;2023-02-12T08:51:56;15.10;;;12.48;;
47153;SDS011;32907;41.412;2.164;2023-02-12T08:54:26;13.65;;;12.13;;
47153;SDS011;32907;41.412;2.164;2023-02-12T08:56:56;13.73;;;10.88;;
47153;SDS011;32907;41.412;2.164;2023-02-12T08:59:26;14.40;;;11.50;;
47153;SDS011;32907;41.412;2.164;2023-02-12T09:01:54;18.63;;;13.48;;
47153;SDS011;32907;41.412;2.164;2023-02-12T09:04:23;14.27;;;12.52;;
47153;SDS011;32907;41.412;2.164;2023-02-12T09:06:53;14.43;;;12.48;;
47153;SDS011;32907;41.412;2.164;2023-02-12T09:09:22;17.25;;;12.75;;
47153;SDS011;32907;41.412;2.164;2023-02-12T09:11:50;19.30;;;12.80;;
47153;SDS011;32907;41.412;2.164;2023-02-12T09:14:20;12.88;;;11.27;;
47153;SDS011;32907;41.412;2.164;2023-02-12T09:16:53;10.70;;;9.20;;
47153;SDS011;32907;41.412;2.164;2023-02-12T09:19:21;10.68;;;8.70;;
47153;SDS011;32907;41.412;2.164;2023-02-12T09:21:50;12.40;;;9.75;;
47153;SDS011;32907;41.412;2.164;2023-02-12T09:24:23;12.63;;;10.10;;
47153;SDS011;32907;41.412;2.164;2023-02-12T09:26:53;13.32;;;9.45;;
47153;SDS011;32907;41.412;2.164;2023-02-12T09:29:21;14.48;;;10.68;;
47153;SDS011;32907;41.412;2.164;2023-02-12T09:31:50;14.50;;;12.93;;
47153;SDS011;32907;41.412;2.164;2023-02-12T09:34:20;16.05;;;13.55;;
47153;SDS011;32907;41.412;2.164;2023-02-12T09:36:47;18.52;;;14.95;;
47153;SDS011;32907;41.412;2.164;2023-02-12T09:39:15;18.48;;;13.82;;
47153;SDS011;32907;41.412;2.164;2023-02-12T09:46:51;16.40;;;12.20;;
47153;SDS011;32907;41.412;2.164;2023-02-12T09:49:30;17.13;;;12.43;;
47153;SDS011;32907;41.412;2.164;2023-02-12T09:52:16;15.00;;;12.60;;
47153;SDS011;32907;41.412;2.164;2023-02-12T09:54:50;13.20;;;11.30;;
47153;SDS011;32907;41.412;2.164;2023-02-12T09:57:32;15.45;;;11.32;;
47153;SDS011;32907;41.412;2.164;2023-02-12T10:02:36;15.15;;;9.70;;
47153;SDS011;32907;41.412;2.164;2023-02-12T10:05:16;17.50;;;10.50;;
47153;SDS011;32907;41.412;2.164;2023-02-12T10:26:47;7.97;;;6.18;;
47153;SDS011;32907;41.412;2.164;2023-02-12T10:29:23;11.07;;;6.00;;
47153;SDS011;32907;41.412;2.164;2023-02-12T10:34:35;9.02;;;6.20;;
47153;SDS011;32907;41.412;2.164;2023-02-12T10:39:42;9.90;;;6.93;;
47153;SDS011;32907;41.412;2.164;2023-02-12T10:42:18;12.15;;;7.90;;
47153;SDS011;32907;41.412;2.164;2023-02-12T10:45:01;11.57;;;8.95;;
47153;SDS011;32907;41.412;2.164;2023-02-12T10:47:29;12.88;;;10.02;;
47153;SDS011;32907;41.412;2.164;2023-02-12T10:49:58;17.33;;;11.77;;
47153;SDS011;32907;41.412;2.164;2023-02-12T10:55:26;20.98;;;13.90;;
47153;SDS011;32907;41.412;2.164;2023-02-12T10:57:59;18.92;;;15.45;;
47153;SDS011;32907;41.412;2.164;2023-02-12T11:00:33;28.08;;;16.88;;
47153;SDS011;32907;41.412;2.164;2023-02-12T11:05:39;40.33;;;15.75;;
47153;SDS011;32907;41.412;2.164;2023-02-12T11:08:25;34.03;;;15.90;;
47153;SDS011;32907;41.412;2.164;2023-02-12T11:10:55;23.95;;;14.02;;
47153;SDS011;32907;41.412;2.164;2023-02-12T11:13:30;23.85;;;13.43;;
47153;SDS011;32907;41.412;2.164;2023-02-12T11:15:59;22.02;;;11.98;;
47153;SDS011;32907;41.412;2.164;2023-02-12T11:18:29;19.02;;;11.75;;
47153;SDS011;32907;41.412;2.164;2023-02-12T11:21:06;16.42;;;10.32;;
47153;SDS011;32907;41.412;2.164;2023-02-12T11:23:40;12.95;;;9.15;;
47153;SDS011;32907;41.412;2.164;2023-02-12T11:32:02;16.42;;;6.45;;
47153;SDS011;32907;41.412;2.164;2023-02-12T11:34:32;31.98;;;7.53;;
47153;SDS011;32907;41.412;2.164;2023-02-12T11:37:02;20.25;;;6.45;;
47153;SDS011;32907;41.412;2.164;2023-02-12T11:39:32;26.38;;;8.35;;
47153;SDS011;32907;41.412;2.164;2023-02-12T11:42:04;22.42;;;11.02;;
47153;SDS011;32907;41.412;2.164;2023-02-12T11:44:42;27.15;;;14.27;;
47153;SDS011;32907;41.412;2.164;2023-02-12T11:47:17;29.77;;;17.30;;
47153;SDS011;32907;41.412;2.164;2023-02-12T11:49:53;35.70;;;17.52;;
47153;SDS011;32907;41.412;2.164;2023-02-12T11:52:26;25.17;;;14.75;;
47153;SDS011;32907;41.412;2.164;2023-02-12T11:55:02;25.83;;;15.55;;
47153;SDS011;32907;41.412;2.164;2023-02-12T11:57:35;26.27;;;15.10;;
47153;SDS011;32907;41.412;2.164;2023-02-12T12:00:10;21.65;;;14.52;;
47153;SDS011;32907;41.412;2.164;2023-02-12T12:05:37;15.40;;;10.65;;
47153;SDS011;32907;41.412;2.164;2023-02-12T12:08:14;13.35;;;10.10;;
47153;SDS011;32907;41.412;2.164;2023-02-12T12:10:55;14.38;;;9.75;;
47153;SDS011;32907;41.412;2.164;2023-02-12T12:13:34;16.13;;;10.55;;
47153;SDS011;32907;41.412;2.164;2023-02-12T12:16:10;14.68;;;11.32;;
47153;SDS011;32907;41.412;2.164;2023-02-12T12:19:14;14.70;;;10.23;;
47153;SDS011;32907;41.412;2.164;2023-02-12T12:22:32;12.65;;;10.50;;
47153;SDS011;32907;41.412;2.164;2023-02-12T13:01:31;15.85;;;8.80;;
47153;SDS011;32907;41.412;2.164;2023-02-12T13:04:25;12.07;;;8.15;;
47153;SDS011;32907;41.412;2.164;2023-02-12T13:07:06;31.85;;;15.60;;
47153;SDS011;32907;41.412;2.164;2023-02-12T13:13:17;40.53;;;21.35;;
47153;SDS011;32907;41.412;2.164;2023-02-12T13:18:54;19.35;;;11.98;;
47153;SDS011;32907;41.412;2.164;2023-02-12T13:21:41;18.10;;;10.88;;
47153;SDS011;32907;41.412;2.164;2023-02-12T13:27:30;10.52;;;7.88;;
47153;SDS011;32907;41.412;2.164;2023-02-12T13:30:19;12.50;;;8.90;;
47153;SDS011;32907;41.412;2.164;2023-02-12T13:35:28;12.93;;;9.32;;
47153;SDS011;32907;41.412;2.164;2023-02-12T13:37:59;12.65;;;8.77;;
47153;SDS011;32907;41.412;2.164;2023-02-12T13:40:29;10.20;;;6.90;;
47153;SDS011;32907;41.412;2.164;2023-02-12T13:56:41;11.57;;;7.78;;
47153;SDS011;32907;41.412;2.164;2023-02-12T14:04:43;11.23;;;7.07;;
47153;SDS011;32907;41.412;2.164;2023-02-12T14:07:14;9.98;;;6.53;;
47153;SDS011;32907;41.412;2.164;2023-02-12T14:09:43;9.02;;;6.55;;
47153;SDS011;32907;41.412;2.164;2023-02-12T14:12:33;9.82;;;6.65;;
47153;SDS011;32907;41.412;2.164;2023-02-12T14:23:26;10.00;;;8.02;;
47153;SDS011;32907;41.412;2.164;2023-02-12T14:25:59;10.75;;;8.25;;
47153;SDS011;32907;41.412;2.164;2023-02-12T14:33:45;8.40;;;6.03;;
47153;SDS011;32907;41.412;2.164;2023-02-12T14:41:46;14.40;;;9.23;;
47153;SDS011;32907;41.412;2.164;2023-02-12T14:46:47;27.25;;;18.50;;
47153;SDS011;32907;41.412;2.164;2023-02-12T14:52:18;20.52;;;14.93;;
47153;SDS011;32907;41.412;2.164;2023-02-12T14:54:55;18.83;;;12.63;;
47153;SDS011;32907;41.412;2.164;2023-02-12T14:57:33;14.57;;;9.30;;
47153;SDS011;32907;41.412;2.164;2023-02-12T15:02:58;7.57;;;5.40;;
47153;SDS011;32907;41.412;2.164;2023-02-12T15:14:05;8.23;;;5.32;;
47153;SDS011;32907;41.412;2.164;2023-02-12T15:22:24;9.02;;;6.13;;
47153;SDS011;32907;41.412;2.164;2023-02-12T15:28:32;7.55;;;4.90;;
47153;SDS011;32907;41.412;2.164;2023-02-12T15:31:01;9.10;;;5.57;;
47153;SDS011;32907;41.412;2.164;2023-02-12T15:33:35;7.75;;;5.68;;
47153;SDS011;32907;41.412;2.164;2023-02-12T15:36:08;7.57;;;5.20;;
47153;SDS011;32907;41.412;2.164;2023-02-12T15:38:43;8.73;;;5.88;;
47153;SDS011;32907;41.412;2.164;2023-02-12T15:41:23;9.05;;;5.88;;
47153;SDS011;32907;41.412;2.164;2023-02-12T15:44:02;8.05;;;6.22;;
47153;SDS011;32907;41.412;2.164;2023-02-12T15:49:41;6.72;;;5.35;;
47153;SDS011;32907;41.412;2.164;2023-02-12T15:52:19;7.82;;;5.78;;
47153;SDS011;32907;41.412;2.164;2023-02-12T15:54:55;9.02;;;6.03;;
47153;SDS011;32907;41.412;2.164;2023-02-12T15:57:23;7.28;;;5.50;;
47153;SDS011;32907;41.412;2.164;2023-02-12T15:59:53;8.40;;;5.90;;
47153;SDS011;32907;41.412;2.164;2023-02-12T16:02:27;16.67;;;7.10;;
47153;SDS011;32907;41.412;2.164;2023-02-12T16:04:57;13.82;;;6.65;;
47153;SDS011;32907;41.412;2.164;2023-02-12T16:07:28;14.70;;;7.40;;
47153;SDS011;32907;41.412;2.164;2023-02-12T16:10:01;11.55;;;6.47;;
47153;SDS011;32907;41.412;2.164;2023-02-12T16:12:32;9.95;;;5.57;;
47153;SDS011;32907;41.412;2.164;2023-02-12T16:15:05;9.57;;;5.82;;
47153;SDS011;32907;41.412;2.164;2023-02-12T16:17:34;7.97;;;6.30;;
47153;SDS011;32907;41.412;2.164;2023-02-12T16:20:19;9.23;;;5.88;;
47153;SDS011;32907;41.412;2.164;2023-02-12T16:22:50;7.03;;;5.65;;
47153;SDS011;32907;41.412;2.164;2023-02-12T16:25:21;7.13;;;5.70;;
47153;SDS011;32907;41.412;2.164;2023-02-12T16:28:05;8.82;;;6.10;;
47153;SDS011;32907;41.412;2.164;2023-02-12T16:30:43;7.63;;;6.00;;
47153;SDS011;32907;41.412;2.164;2023-02-12T16:33:32;8.48;;;6.25;;
47153;SDS011;32907;41.412;2.164;2023-02-12T16:36:47;8.20;;;6.25;;
47153;SDS011;32907;41.412;2.164;2023-02-12T16:39:01;8.52;;;6.65;;
47153;SDS011;32907;41.412;2.164;2023-02-12T16:41:34;8.75;;;7.72;;
47153;SDS011;32907;41.412;2.164;2023-02-12T16:44:24;8.80;;;6.57;;
47153;SDS011;32907;41.412;2.164;2023-02-12T16:46:57;8.23;;;6.75;;
47153;SDS011;32907;41.412;2.164;2023-02-12T16:49:29;9.65;;;7.90;;
47153;SDS011;32907;41.412;2.164;2023-02-12T16:55:05;17.85;;;14.35;;
47153;SDS011;32907;41.412;2.164;2023-02-12T16:57:40;17.40;;;13.35;;
47153;SDS011;32907;41.412;2.164;2023-02-12T17:00:10;14.25;;;12.15;;
47153;SDS011;32907;41.412;2.164;2023-02-12T17:02:42;14.25;;;10.73;;
47153;SDS011;32907;41.412;2.164;2023-02-12T17:05:10;13.68;;;10.98;;
47153;SDS011;32907;41.412;2.164;2023-02-12T17:07:38;11.25;;;9.60;;
47153;SDS011;32907;41.412;2.164;2023-02-12T17:10:11;11.68;;;7.93;;
47153;SDS011;32907;41.412;2.164;2023-02-12T17:12:58;11.18;;;8.25;;
47153;SDS011;32907;41.412;2.164;2023-02-12T17:15:27;13.77;;;9.55;;
47153;SDS011;32907;41.412;2.164;2023-02-12T17:18:00;10.90;;;7.93;;
47153;SDS011;32907;41.412;2.164;2023-02-12T17:20:28;6.93;;;6.20;;
47153;SDS011;32907;41.412;2.164;2023-02-12T17:22:55;9.07;;;6.25;;
47153;SDS011;32907;41.412;2.164;2023-02-12T17:25:25;6.53;;;5.32;;
47153;SDS011;32907;41.412;2.164;2023-02-12T17:27:57;7.68;;;5.05;;
47153;SDS011;32907;41.412;2.164;2023-02-12T17:30:25;6.40;;;4.78;;
47153;SDS011;32907;41.412;2.164;2023-02-12T17:32:54;9.32;;;5.57;;
47153;SDS011;32907;41.412;2.164;2023-02-12T17:35:22;10.27;;;7.20;;
47153;SDS011;32907;41.412;2.164;2023-02-12T17:37:49;10.88;;;7.97;;
47153;SDS011;32907;41.412;2.164;2023-02-12T17:40:18;10.00;;;8.05;;
47153;SDS011;32907;41.412;2.164;2023-02-12T17:42:46;9.93;;;6.85;;
47153;SDS011;32907;41.412;2.164;2023-02-12T17:45:16;9.57;;;6.82;;
47153;SDS011;32907;41.412;2.164;2023-02-12T17:47:44;8.00;;;5.82;;
47153;SDS011;32907;41.412;2.164;2023-02-12T17:50:14;7.45;;;6.22;;
47153;SDS011;32907;41.412;2.164;2023-02-12T17:52:43;6.63;;;4.80;;
47153;SDS011;32907;41.412;2.164;2023-02-12T17:55:11;7.18;;;5.25;;
47153;SDS011;32907;41.412;2.164;2023-02-12T17:57:40;8.43;;;5.85;;
47153;SDS011;32907;41.412;2.164;2023-02-12T18:00:09;9.13;;;6.45;;
47153;SDS011;32907;41.412;2.164;2023-02-12T18:02:38;8.20;;;6.28;;
47153;SDS011;32907;41.412;2.164;2023-02-12T18:05:06;7.85;;;6.50;;
47153;SDS011;32907;41.412;2.164;2023-02-12T18:07:36;10.25;;;6.97;;
47153;SDS011;32907;41.412;2.164;2023-02-12T18:10:04;8.68;;;6.65;;
47153;SDS011;32907;41.412;2.164;2023-02-12T18:12:35;8.63;;;7.30;;
47153;SDS011;32907;41.412;2.164;2023-02-12T18:15:03;8.88;;;7.38;;
47153;SDS011;32907;41.412;2.164;2023-02-12T18:17:33;9.73;;;7.57;;
47153;SDS011;32907;41.412;2.164;2023-02-12T18:20:02;12.02;;;8.23;;
47153;SDS011;32907;41.412;2.164;2023-02-12T18:22:31;9.20;;;7.60;;
47153;SDS011;32907;41.412;2.164;2023-02-12T18:25:03;8.70;;;7.30;;
47153;SDS011;32907;41.412;2.164;2023-02-12T18:27:32;8.73;;;7.68;;
47153;SDS011;32907;41.412;2.164;2023-02-12T18:30:00;9.70;;;7.57;;
47153;SDS011;32907;41.412;2.164;2023-02-12T18:32:29;9.68;;;7.57;;
47153;SDS011;32907;41.412;2.164;2023-02-12T18:34:57;9.48;;;7.95;;
47153;SDS011;32907;41.412;2.164;2023-02-12T18:37:25;12.73;;;8.90;;
47153;SDS011;32907;41.412;2.164;2023-02-12T18:39:53;16.48;;;10.77;;
47153;SDS011;32907;41.412;2.164;2023-02-12T18:42:21;16.95;;;11.68;;
47153;SDS011;32907;41.412;2.164;2023-02-12T18:44:51;15.85;;;11.88;;
47153;SDS011;32907;41.412;2.164;2023-02-12T18:47:19;16.63;;;11.18;;
47153;SDS011;32907;41.412;2.164;2023-02-12T18:49:47;14.15;;;10.52;;
47153;SDS011;32907;41.412;2.164;2023-02-12T18:52:15;11.75;;;9.82;;
47153;SDS011;32907;41.412;2.164;2023-02-12T18:54:43;11.43;;;8.82;;
47153;SDS011;32907;41.412;2.164;2023-02-12T18:57:11;12.32;;;10.98;;
47153;SDS011;32907;41.412;2.164;2023-02-12T18:59:39;12.07;;;10.80;;